sensor_id;sensor_type;location;lat;lon;timestamp;pressure;altitude;pressure_sealevel;temperature;humidity
20860;BME280;10590;48.154;11.514;2023-06-10T00:00:15;95273.97;;;17.35;60.12
20860;BME280;10590;48.154;11.514;2023-06-10T00:05:39;95279.38;;;17.35;60.05
20860;BME280;10590;48.154;11.514;2023-06-10T00:11:01;95287.25;;;17.20;60.54
20860;BME280;10590;48.154;11.514;2023-06-10T00:16:23;95282.53;;;17.14;60.51
20860;BME280;10590;48.154;11.514;2023-06-10T00:21:47;95280.00;;;17.25;60.25
20860;BME280;10590;48.154;11.514;2023-06-10T00:27:08;95281.41;;;17.15;60.81
20860;BME280;10590;48.154;11.514;2023-06-10T00:32:30;95273.53;;;17.03;60.78
20860;BME280;10590;48.154;11.514;2023-06-10T00:37:54;95279.66;;;17.00;61.60
20860;BME280;10590;48.154;11.514;2023-06-10T00:43:16;95288.00;;;16.91;62.18
20860;BME280;10590;48.154;11.514;2023-06-10T00:48:38;95285.97;;;16.84;62.31
20860;BME280;10590;48.154;11.514;2023-06-10T00:54:02;95284.69;;;16.75;62.82
20860;BME280;10590;48.154;11.514;2023-06-10T00:59:25;95285.34;;;16.68;63.55
20860;BME280;10590;48.154;11.514;2023-06-10T01:04:47;95274.34;;;16.54;63.90
20860;BME280;10590;48.154;11.514;2023-06-10T01:10:17;95274.09;;;16.63;63.99
20860;BME280;10590;48.154;11.514;2023-06-10T01:15:41;95278.81;;;16.46;64.68
20860;BME280;10590;48.154;11.514;2023-06-10T01:21:04;95289.03;;;16.37;65.86
20860;BME280;10590;48.154;11.514;2023-06-10T01:26:32;95286.97;;;16.27;66.15
20860;BME280;10590;48.154;11.514;2023-06-10T01:32:01;95294.19;;;16.23;66.64
20860;BME280;10590;48.154;11.514;2023-06-10T01:37:26;95294.16;;;15.77;68.11
20860;BME280;10590;48.154;11.514;2023-06-10T01:42:49;95290.88;;;15.87;68.27
20860;BME280;10590;48.154;11.514;2023-06-10T01:48:12;95291.97;;;16.06;67.67
20860;BME280;10590;48.154;11.514;2023-06-10T01:53:35;95287.91;;;15.92;68.33
20860;BME280;10590;48.154;11.514;2023-06-10T01:58:58;95307.41;;;16.09;67.83
20860;BME280;10590;48.154;11.514;2023-06-10T02:04:20;95300.03;;;16.06;68.06
20860;BME280;10590;48.154;11.514;2023-06-10T02:09:42;95299.16;;;15.98;68.41
20860;BME280;10590;48.154;11.514;2023-06-10T02:15:05;95294.13;;;15.97;69.22
20860;BME280;10590;48.154;11.514;2023-06-10T02:20:27;95296.94;;;15.46;70.88
20860;BME280;10590;48.154;11.514;2023-06-10T02:25:49;95294.31;;;15.65;70.43
20860;BME280;10590;48.154;11.514;2023-06-10T02:31:13;95298.22;;;15.52;71.21
20860;BME280;10590;48.154;11.514;2023-06-10T02:36:35;95298.31;;;15.01;72.85
20860;BME280;10590;48.154;11.514;2023-06-10T02:41:57;95290.81;;;14.91;73.50
20860;BME280;10590;48.154;11.514;2023-06-10T02:47:20;95297.47;;;14.97;73.57
20860;BME280;10590;48.154;11.514;2023-06-10T02:52:43;95297.84;;;14.80;74.41
20860;BME280;10590;48.154;11.514;2023-06-10T02:58:06;95303.41;;;15.06;74.08
20860;BME280;10590;48.154;11.514;2023-06-10T03:03:30;95298.94;;;14.94;74.74
20860;BME280;10590;48.154;11.514;2023-06-10T03:08:53;95301.69;;;14.98;75.17
20860;BME280;10590;48.154;11.514;2023-06-10T03:14:15;95305.97;;;14.36;76.73
20860;BME280;10590;48.154;11.514;2023-06-10T03:19:39;95322.94;;;15.03;74.39
20860;BME280;10590;48.154;11.514;2023-06-10T03:25:00;95315.28;;;15.05;74.42
20860;BME280;10590;48.154;11.514;2023-06-10T03:30:22;95330.88;;;15.15;74.17
20860;BME280;10590;48.154;11.514;2023-06-10T03:35:46;95335.53;;;15.18;73.29
20860;BME280;10590;48.154;11.514;2023-06-10T03:41:08;95332.44;;;15.16;73.46
20860;BME280;10590;48.154;11.514;2023-06-10T03:46:30;95339.50;;;15.24;73.62
20860;BME280;10590;48.154;11.514;2023-06-10T03:51:53;95341.31;;;15.01;74.13
20860;BME280;10590;48.154;11.514;2023-06-10T03:57:15;95344.66;;;15.14;74.07
20860;BME280;10590;48.154;11.514;2023-06-10T04:02:38;95342.63;;;15.26;73.93
20860;BME280;10590;48.154;11.514;2023-06-10T04:08:07;95348.16;;;15.34;74.07
20860;BME280;10590;48.154;11.514;2023-06-10T04:13:29;95347.25;;;15.45;73.50
20860;BME280;10590;48.154;11.514;2023-06-10T04:18:51;95353.63;;;15.72;73.08
20860;BME280;10590;48.154;11.514;2023-06-10T04:24:14;95350.06;;;15.87;72.01
20860;BME280;10590;48.154;11.514;2023-06-10T04:29:37;95365.19;;;16.15;71.70
20860;BME280;10590;48.154;11.514;2023-06-10T04:35:00;95362.47;;;16.34;71.09
20860;BME280;10590;48.154;11.514;2023-06-10T04:40:23;95365.56;;;16.55;70.01
20860;BME280;10590;48.154;11.514;2023-06-10T04:45:46;95372.09;;;16.54;70.17
20860;BME280;10590;48.154;11.514;2023-06-10T04:51:08;95373.91;;;16.70;70.11
20860;BME280;10590;48.154;11.514;2023-06-10T04:56:31;95371.69;;;16.75;70.10
20860;BME280;10590;48.154;11.514;2023-06-10T05:01:53;95372.25;;;17.11;69.04
20860;BME280;10590;48.154;11.514;2023-06-10T05:07:15;95374.78;;;17.00;69.32
20860;BME280;10590;48.154;11.514;2023-06-10T05:12:40;95374.06;;;17.03;69.50
20860;BME280;10590;48.154;11.514;2023-06-10T05:18:02;95381.63;;;17.20;69.04
20860;BME280;10590;48.154;11.514;2023-06-10T05:23:24;95380.41;;;17.41;68.50
20860;BME280;10590;48.154;11.514;2023-06-10T05:28:48;95380.78;;;17.39;69.02
20860;BME280;10590;48.154;11.514;2023-06-10T05:34:09;95376.53;;;17.15;70.04
20860;BME280;10590;48.154;11.514;2023-06-10T05:39:31;95382.47;;;17.77;68.08
20860;BME280;10590;48.154;11.514;2023-06-10T05:44:55;95371.94;;;18.02;66.97
20860;BME280;10590;48.154;11.514;2023-06-10T05:50:17;95380.06;;;18.73;65.25
20860;BME280;10590;48.154;11.514;2023-06-10T05:55:39;95386.22;;;18.03;67.41
20860;BME280;10590;48.154;11.514;2023-06-10T06:01:02;95381.50;;;18.26;65.97
20860;BME280;10590;48.154;11.514;2023-06-10T06:06:24;95381.03;;;17.87;67.66
20860;BME280;10590;48.154;11.514;2023-06-10T06:11:46;95383.13;;;19.19;64.07
20860;BME280;10590;48.154;11.514;2023-06-10T06:17:09;95386.91;;;19.62;61.63
20860;BME280;10590;48.154;11.514;2023-06-10T06:22:31;95388.25;;;19.97;60.80
20860;BME280;10590;48.154;11.514;2023-06-10T06:27:52;95394.25;;;20.52;59.16
20860;BME280;10590;48.154;11.514;2023-06-10T06:33:16;95383.50;;;21.13;56.59
20860;BME280;10590;48.154;11.514;2023-06-10T06:38:38;95388.34;;;20.15;59.81
20860;BME280;10590;48.154;11.514;2023-06-10T06:44:00;95392.16;;;20.03;60.00
20860;BME280;10590;48.154;11.514;2023-06-10T06:49:24;95396.50;;;20.29;58.99
20860;BME280;10590;48.154;11.514;2023-06-10T06:54:46;95395.13;;;21.24;58.18
20860;BME280;10590;48.154;11.514;2023-06-10T07:00:09;95399.13;;;22.35;53.75
20860;BME280;10590;48.154;11.514;2023-06-10T07:05:32;95388.75;;;19.51;61.40
20860;BME280;10590;48.154;11.514;2023-06-10T07:10:54;95397.81;;;20.92;57.42
20860;BME280;10590;48.154;11.514;2023-06-10T07:16:16;95411.41;;;19.87;61.08
20860;BME280;10590;48.154;11.514;2023-06-10T07:21:42;95410.78;;;20.15;58.93
20860;BME280;10590;48.154;11.514;2023-06-10T07:27:04;95415.03;;;20.16;59.16
20860;BME280;10590;48.154;11.514;2023-06-10T07:32:27;95409.44;;;21.63;55.39
20860;BME280;10590;48.154;11.514;2023-06-10T07:37:50;95401.03;;;23.97;48.39
20860;BME280;10590;48.154;11.514;2023-06-10T07:43:12;95410.78;;;23.54;49.07
20860;BME280;10590;48.154;11.514;2023-06-10T07:48:34;95404.81;;;21.32;53.30
20860;BME280;10590;48.154;11.514;2023-06-10T07:53:58;95399.66;;;22.85;50.77
20860;BME280;10590;48.154;11.514;2023-06-10T07:59:20;95403.44;;;22.99;51.04
20860;BME280;10590;48.154;11.514;2023-06-10T08:04:41;95402.88;;;24.68;44.83
20860;BME280;10590;48.154;11.514;2023-06-10T08:10:06;95399.63;;;23.37;47.79
20860;BME280;10590;48.154;11.514;2023-06-10T08:15:28;95404.47;;;24.66;44.91
20860;BME280;10590;48.154;11.514;2023-06-10T08:20:50;95396.38;;;25.16;44.46
20860;BME280;10590;48.154;11.514;2023-06-10T08:26:14;95404.13;;;27.19;38.26
20860;BME280;10590;48.154;11.514;2023-06-10T08:31:35;95402.53;;;25.20;41.54
20860;BME280;10590;48.154;11.514;2023-06-10T08:36:57;95399.09;;;29.55;33.84
20860;BME280;10590;48.154;11.514;2023-06-10T08:42:23;95392.53;;;29.02;35.32
20860;BME280;10590;48.154;11.514;2023-06-10T08:47:50;95403.00;;;27.82;36.47
20860;BME280;10590;48.154;11.514;2023-06-10T08:53:16;95401.63;;;26.37;40.21
20860;BME280;10590;48.154;11.514;2023-06-10T08:58:41;95394.88;;;27.46;38.13
20860;BME280;10590;48.154;11.514;2023-06-10T09:04:04;95400.75;;;26.95;38.10
20860;BME280;10590;48.154;11.514;2023-06-10T09:09:28;95394.25;;;28.83;35.68
20860;BME280;10590;48.154;11.514;2023-06-10T09:14:52;95400.59;;;31.40;31.88
20860;BME280;10590;48.154;11.514;2023-06-10T09:20:14;95395.22;;;29.65;33.60
20860;BME280;10590;48.154;11.514;2023-06-10T09:25:37;95397.78;;;28.29;36.00
20860;BME280;10590;48.154;11.514;2023-06-10T09:31:05;95392.31;;;28.96;34.76
20860;BME280;10590;48.154;11.514;2023-06-10T09:36:27;95397.25;;;28.34;37.33
20860;BME280;10590;48.154;11.514;2023-06-10T09:41:50;95400.16;;;29.92;33.76
20860;BME280;10590;48.154;11.514;2023-06-10T09:47:19;95397.06;;;28.12;36.79
20860;BME280;10590;48.154;11.514;2023-06-10T09:52:41;95404.47;;;27.21;37.70
20860;BME280;10590;48.154;11.514;2023-06-10T09:58:03;95393.09;;;24.44;43.48
20860;BME280;10590;48.154;11.514;2023-06-10T10:03:27;95397.97;;;29.65;32.26
20860;BME280;10590;48.154;11.514;2023-06-10T10:08:49;95387.41;;;28.08;35.94
20860;BME280;10590;48.154;11.514;2023-06-10T10:14:13;95397.13;;;28.67;34.51
20860;BME280;10590;48.154;11.514;2023-06-10T10:19:40;95377.91;;;27.51;37.46
20860;BME280;10590;48.154;11.514;2023-06-10T10:25:10;95399.75;;;29.59;32.03
20860;BME280;10590;48.154;11.514;2023-06-10T10:30:38;95385.03;;;30.31;30.80
20860;BME280;10590;48.154;11.514;2023-06-10T10:36:03;95386.78;;;30.60;29.95
20860;BME280;10590;48.154;11.514;2023-06-10T10:41:26;95387.78;;;30.53;29.75
20860;BME280;10590;48.154;11.514;2023-06-10T10:46:49;95393.25;;;31.64;28.13
20860;BME280;10590;48.154;11.514;2023-06-10T10:52:13;95378.56;;;31.09;30.11
20860;BME280;10590;48.154;11.514;2023-06-10T10:57:38;95382.34;;;26.44;37.78
20860;BME280;10590;48.154;11.514;2023-06-10T11:03:05;95382.16;;;26.87;36.88
20860;BME280;10590;48.154;11.514;2023-06-10T11:08:47;95371.47;;;30.15;31.37
20860;BME280;10590;48.154;11.514;2023-06-10T11:14:11;95390.25;;;27.43;36.97
20860;BME280;10590;48.154;11.514;2023-06-10T11:19:34;95382.00;;;28.33;34.89
20860;BME280;10590;48.154;11.514;2023-06-10T11:24:57;95382.28;;;30.31;31.93
20860;BME280;10590;48.154;11.514;2023-06-10T11:30:20;95386.16;;;27.35;35.71
20860;BME280;10590;48.154;11.514;2023-06-10T11:35:42;95385.84;;;25.38;40.15
20860;BME280;10590;48.154;11.514;2023-06-10T11:41:06;95376.06;;;24.36;42.43
20860;BME280;10590;48.154;11.514;2023-06-10T11:46:28;95368.00;;;24.22;43.61
20860;BME280;10590;48.154;11.514;2023-06-10T11:51:50;95371.13;;;24.55;43.22
20860;BME280;10590;48.154;11.514;2023-06-10T11:57:14;95367.38;;;24.45;43.31
20860;BME280;10590;48.154;11.514;2023-06-10T12:02:36;95356.25;;;28.69;33.42
20860;BME280;10590;48.154;11.514;2023-06-10T12:08:11;95361.22;;;29.94;31.07
20860;BME280;10590;48.154;11.514;2023-06-10T12:13:35;95355.81;;;28.16;34.79
20860;BME280;10590;48.154;11.514;2023-06-10T12:19:01;95357.13;;;30.42;31.00
20860;BME280;10590;48.154;11.514;2023-06-10T12:24:24;95348.47;;;30.84;30.39
20860;BME280;10590;48.154;11.514;2023-06-10T12:29:52;95357.72;;;31.66;28.94
20860;BME280;10590;48.154;11.514;2023-06-10T12:35:17;95347.31;;;30.63;30.54
20860;BME280;10590;48.154;11.514;2023-06-10T12:40:39;95350.16;;;30.06;30.22
20860;BME280;10590;48.154;11.514;2023-06-10T12:46:09;95340.38;;;32.21;27.52
20860;BME280;10590;48.154;11.514;2023-06-10T12:51:33;95326.38;;;30.74;29.21
20860;BME280;10590;48.154;11.514;2023-06-10T12:56:56;95323.81;;;30.80;29.42
20860;BME280;10590;48.154;11.514;2023-06-10T13:02:19;95321.44;;;27.24;36.48
20860;BME280;10590;48.154;11.514;2023-06-10T13:07:44;95323.66;;;25.69;38.71
20860;BME280;10590;48.154;11.514;2023-06-10T13:13:06;95334.84;;;24.58;43.68
20860;BME280;10590;48.154;11.514;2023-06-10T13:18:31;95334.00;;;24.61;43.86
20860;BME280;10590;48.154;11.514;2023-06-10T13:23:57;95328.53;;;27.83;38.04
20860;BME280;10590;48.154;11.514;2023-06-10T13:29:19;95315.94;;;29.38;35.44
20860;BME280;10590;48.154;11.514;2023-06-10T13:34:42;95326.34;;;27.62;37.26
20860;BME280;10590;48.154;11.514;2023-06-10T13:40:06;95324.47;;;28.42;35.41
20860;BME280;10590;48.154;11.514;2023-06-10T13:45:28;95329.75;;;27.66;36.54
20860;BME280;10590;48.154;11.514;2023-06-10T13:50:52;95317.66;;;27.80;35.72
20860;BME280;10590;48.154;11.514;2023-06-10T13:56:14;95324.03;;;30.11;31.64
20860;BME280;10590;48.154;11.514;2023-06-10T14:01:36;95317.84;;;27.11;36.04
20860;BME280;10590;48.154;11.514;2023-06-10T14:06:59;95308.75;;;26.82;36.61
20860;BME280;10590;48.154;11.514;2023-06-10T14:12:21;95320.09;;;28.45;33.86
20860;BME280;10590;48.154;11.514;2023-06-10T14:17:43;95310.97;;;29.59;32.30
20860;BME280;10590;48.154;11.514;2023-06-10T14:23:07;95319.53;;;28.37;34.46
20860;BME280;10590;48.154;11.514;2023-06-10T14:28:29;95321.59;;;27.34;35.92
20860;BME280;10590;48.154;11.514;2023-06-10T14:33:51;95326.06;;;29.54;33.10
20860;BME280;10590;48.154;11.514;2023-06-10T14:39:14;95328.09;;;27.85;35.63
20860;BME280;10590;48.154;11.514;2023-06-10T14:44:36;95329.50;;;26.63;37.87
20860;BME280;10590;48.154;11.514;2023-06-10T14:49:58;95336.22;;;25.20;39.18
20860;BME280;10590;48.154;11.514;2023-06-10T14:55:21;95321.41;;;26.03;36.95
20860;BME280;10590;48.154;11.514;2023-06-10T15:00:44;95329.91;;;26.45;36.14
20860;BME280;10590;48.154;11.514;2023-06-10T15:06:06;95330.41;;;27.70;33.92
20860;BME280;10590;48.154;11.514;2023-06-10T15:11:29;95330.28;;;26.27;36.57
20860;BME280;10590;48.154;11.514;2023-06-10T15:16:51;95327.81;;;26.69;36.41
20860;BME280;10590;48.154;11.514;2023-06-10T15:22:13;95313.09;;;26.79;37.58
20860;BME280;10590;48.154;11.514;2023-06-10T15:27:36;95319.75;;;26.26;39.59
20860;BME280;10590;48.154;11.514;2023-06-10T15:32:58;95313.94;;;25.64;40.63
20860;BME280;10590;48.154;11.514;2023-06-10T15:38:20;95319.09;;;26.74;37.92
20860;BME280;10590;48.154;11.514;2023-06-10T15:43:43;95306.63;;;27.06;37.52
20860;BME280;10590;48.154;11.514;2023-06-10T15:49:05;95318.09;;;26.12;38.65
20860;BME280;10590;48.154;11.514;2023-06-10T15:54:27;95318.41;;;25.35;39.28
20860;BME280;10590;48.154;11.514;2023-06-10T15:59:50;95319.50;;;24.91;40.71
20860;BME280;10590;48.154;11.514;2023-06-10T16:05:12;95321.59;;;24.56;41.39
20860;BME280;10590;48.154;11.514;2023-06-10T16:10:34;95319.13;;;24.65;42.83
20860;BME280;10590;48.154;11.514;2023-06-10T16:15:58;95323.91;;;24.58;43.76
20860;BME280;10590;48.154;11.514;2023-06-10T16:21:19;95328.25;;;23.60;46.68
20860;BME280;10590;48.154;11.514;2023-06-10T16:26:41;95341.03;;;23.67;46.01
20860;BME280;10590;48.154;11.514;2023-06-10T16:32:06;95344.47;;;23.71;46.52
20860;BME280;10590;48.154;11.514;2023-06-10T16:37:28;95350.69;;;24.05;45.80
20860;BME280;10590;48.154;11.514;2023-06-10T16:42:50;95359.75;;;23.61;46.17
20860;BME280;10590;48.154;11.514;2023-06-10T16:48:13;95357.25;;;23.36;46.84
20860;BME280;10590;48.154;11.514;2023-06-10T16:53:35;95379.81;;;22.88;46.33
20860;BME280;10590;48.154;11.514;2023-06-10T16:58:57;95377.41;;;22.98;46.98
20860;BME280;10590;48.154;11.514;2023-06-10T17:04:21;95367.06;;;23.27;46.42
20860;BME280;10590;48.154;11.514;2023-06-10T17:09:43;95372.19;;;23.17;46.40
20860;BME280;10590;48.154;11.514;2023-06-10T17:15:06;95376.44;;;23.22;47.32
20860;BME280;10590;48.154;11.514;2023-06-10T17:20:29;95385.72;;;23.28;47.60
20860;BME280;10590;48.154;11.514;2023-06-10T17:25:51;95379.03;;;22.88;48.42
20860;BME280;10590;48.154;11.514;2023-06-10T17:31:13;95390.94;;;23.08;47.62
20860;BME280;10590;48.154;11.514;2023-06-10T17:36:36;95394.25;;;22.78;48.29
20860;BME280;10590;48.154;11.514;2023-06-10T17:41:58;95396.63;;;22.73;47.94
20860;BME280;10590;48.154;11.514;2023-06-10T17:47:20;95404.06;;;22.62;48.13
20860;BME280;10590;48.154;11.514;2023-06-10T17:52:44;95408.81;;;22.43;49.86
20860;BME280;10590;48.154;11.514;2023-06-10T17:58:06;95414.09;;;21.52;52.83
20860;BME280;10590;48.154;11.514;2023-06-10T18:03:27;95407.84;;;21.84;52.73
20860;BME280;10590;48.154;11.514;2023-06-10T18:08:51;95408.97;;;21.97;53.13
20860;BME280;10590;48.154;11.514;2023-06-10T18:14:13;95412.53;;;21.66;54.17
20860;BME280;10590;48.154;11.514;2023-06-10T18:19:35;95413.75;;;21.33;55.12
20860;BME280;10590;48.154;11.514;2023-06-10T18:24:59;95411.78;;;21.40;55.31
20860;BME280;10590;48.154;11.514;2023-06-10T18:30:25;95418.75;;;21.02;57.00
20860;BME280;10590;48.154;11.514;2023-06-10T18:35:47;95414.09;;;20.92;56.97
20860;BME280;10590;48.154;11.514;2023-06-10T18:41:10;95427.94;;;20.41;56.99
20860;BME280;10590;48.154;11.514;2023-06-10T18:46:32;95427.47;;;20.28;56.58
20860;BME280;10590;48.154;11.514;2023-06-10T18:51:54;95431.25;;;20.06;57.04
20860;BME280;10590;48.154;11.514;2023-06-10T18:57:17;95440.97;;;20.17;57.57
20860;BME280;10590;48.154;11.514;2023-06-10T19:02:39;95446.38;;;20.14;58.01
20860;BME280;10590;48.154;11.514;2023-06-10T19:08:01;95454.75;;;19.87;58.96
20860;BME280;10590;48.154;11.514;2023-06-10T19:13:25;95465.78;;;20.26;58.25
20860;BME280;10590;48.154;11.514;2023-06-10T19:18:47;95466.91;;;20.18;59.38
20860;BME280;10590;48.154;11.514;2023-06-10T19:24:09;95474.03;;;19.82;61.40
20860;BME280;10590;48.154;11.514;2023-06-10T19:29:33;95479.78;;;19.73;61.88
20860;BME280;10590;48.154;11.514;2023-06-10T19:34:54;95479.78;;;19.73;62.39
20860;BME280;10590;48.154;11.514;2023-06-10T19:40:16;95493.25;;;19.63;62.69
20860;BME280;10590;48.154;11.514;2023-06-10T19:45:40;95496.41;;;19.68;62.45
20860;BME280;10590;48.154;11.514;2023-06-10T19:51:02;95507.44;;;19.49;63.17
20860;BME280;10590;48.154;11.514;2023-06-10T19:56:24;95513.19;;;19.44;63.28
20860;BME280;10590;48.154;11.514;2023-06-10T20:01:47;95511.59;;;19.36;63.57
20860;BME280;10590;48.154;11.514;2023-06-10T20:07:09;95511.97;;;19.34;63.82
20860;BME280;10590;48.154;11.514;2023-06-10T20:12:31;95520.44;;;19.33;64.06
20860;BME280;10590;48.154;11.514;2023-06-10T20:17:54;95523.13;;;19.29;64.69
20860;BME280;10590;48.154;11.514;2023-06-10T20:23:16;95518.75;;;18.81;65.66
20860;BME280;10590;48.154;11.514;2023-06-10T20:28:38;95526.69;;;18.63;66.37
20860;BME280;10590;48.154;11.514;2023-06-10T20:34:02;95529.53;;;18.77;65.96
20860;BME280;10590;48.154;11.514;2023-06-10T20:39:24;95529.47;;;18.70;65.99
20860;BME280;10590;48.154;11.514;2023-06-10T20:44:46;95535.59;;;18.67;65.97
20860;BME280;10590;48.154;11.514;2023-06-10T20:50:10;95537.75;;;18.54;66.72
20860;BME280;10590;48.154;11.514;2023-06-10T20:55:32;95548.00;;;18.71;66.24
20860;BME280;10590;48.154;11.514;2023-06-10T21:00:55;95535.59;;;18.37;67.35
20860;BME280;10590;48.154;11.514;2023-06-10T21:06:18;95535.97;;;18.35;67.46
20860;BME280;10590;48.154;11.514;2023-06-10T21:11:42;95539.59;;;18.20;68.16
20860;BME280;10590;48.154;11.514;2023-06-10T21:17:05;95545.72;;;18.43;67.39
20860;BME280;10590;48.154;11.514;2023-06-10T21:22:29;95553.88;;;18.47;67.61
20860;BME280;10590;48.154;11.514;2023-06-10T21:27:51;95556.13;;;18.41;67.76
20860;BME280;10590;48.154;11.514;2023-06-10T21:33:13;95550.94;;;18.29;68.03
20860;BME280;10590;48.154;11.514;2023-06-10T21:38:36;95545.91;;;18.28;67.84
20860;BME280;10590;48.154;11.514;2023-06-10T21:43:58;95551.41;;;18.08;69.11
20860;BME280;10590;48.154;11.514;2023-06-10T21:49:20;95549.38;;;18.02;69.32
20860;BME280;10590;48.154;11.514;2023-06-10T21:54:43;95558.16;;;17.95;69.21
20860;BME280;10590;48.154;11.514;2023-06-10T22:00:06;95553.31;;;18.08;68.80
20860;BME280;10590;48.154;11.514;2023-06-10T22:05:31;95555.34;;;17.88;70.03
20860;BME280;10590;48.154;11.514;2023-06-10T22:10:55;95552.03;;;17.98;69.71
20860;BME280;10590;48.154;11.514;2023-06-10T22:16:17;95559.13;;;17.83;69.95
20860;BME280;10590;48.154;11.514;2023-06-10T22:21:39;95556.91;;;17.89;69.62
20860;BME280;10590;48.154;11.514;2023-06-10T22:27:04;95554.16;;;17.86;70.00
20860;BME280;10590;48.154;11.514;2023-06-10T22:32:28;95551.59;;;17.70;70.54
20860;BME280;10590;48.154;11.514;2023-06-10T22:37:50;95542.06;;;17.76;70.75
20860;BME280;10590;48.154;11.514;2023-06-10T22:43:14;95541.03;;;17.61;70.84
20860;BME280;10590;48.154;11.514;2023-06-10T22:48:36;95540.19;;;17.57;71.59
20860;BME280;10590;48.154;11.514;2023-06-10T22:53:57;95548.72;;;17.59;71.82
20860;BME280;10590;48.154;11.514;2023-06-10T22:59:21;95544.94;;;17.64;71.31
20860;BME280;10590;48.154;11.514;2023-06-10T23:04:44;95552.00;;;17.49;72.28
20860;BME280;10590;48.154;11.514;2023-06-10T23:10:07;95557.44;;;17.30;73.20
20860;BME280;10590;48.154;11.514;2023-06-10T23:15:30;95556.72;;;17.33;73.14
20860;BME280;10590;48.154;11.514;2023-06-10T23:20:52;95556.19;;;17.24;73.54
20860;BME280;10590;48.154;11.514;2023-06-10T23:26:14;95555.88;;;17.29;73.37
20860;BME280;10590;48.154;11.514;2023-06-10T23:31:38;95560.31;;;17.17;73.74
20860;BME280;10590;48.154;11.514;2023-06-10T23:37:00;95552.22;;;17.17;73.95
20860;BME280;10590;48.154;11.514;2023-06-10T23:42:24;95551.88;;;17.19;74.24
20860;BME280;10590;48.154;11.514;2023-06-10T23:47:48;95551.66;;;16.85;75.83
20860;BME280;10590;48.154;11.514;2023-06-10T23:53:12;95562.69;;;17.00;75.30
20860;BME280;10590;48.154;11.514;2023-06-10T23:58:34;95565.91;;;16.86;76.03
